Sandwich, IL (60548)

12:36 PM CST on January 30, 2015 (GMT -0600)
Rural--2.75 mi WSW Sandwich, IL | Change Station
CLOSE
Current Station
Personal Weather Station
Location: Sandwich, IL
Elevation: 698 ft
Nearby Weather Stations
Active Advisory: Winter Storm Watch

Elev 698 ft 41.62 °N, 88.65 °W | Updated 7 minutes ago

Clear
Clear
28.2 °F
Feels Like 28 °F
N
0.0
Wind Variable Wind from West
Gusts 0.0 mph

Today
High -- | Low -- °F
--% Chance of Precip.
Yesterday
High -- | Low -- °F
Precip. -- in
7:08 AM 5:07 PM
Waxing Gibbous, 84% visible
Pressure 30.54 in
Visibility 10.0 miles
Clouds Clear
Windchill 28 °F
Dew Point 13 °F
Humidity 52%
Rainfall 0.00 in
Snow Depth Not available.
UV 3 out of 12
Pollen .10 out of 12
Air Quality Not available.
Flu Activity Not available.
METAR KARR 301752Z 31004KT 10SM CLR M03/M12 A3051 RMK AO2 SLP342 T10281122 11028 21072 58000

More Conditions Fewer Conditions

Pressure 30.54 in
Visibility 10.0 miles
Clouds Clear
Windchill 28 °F
Dew Point 13 °F
Humidity 52%
Rainfall 0.00 in
Snow Depth Not available.
UV 3 out of 12
Pollen .10 out of 12
Air Quality Not available.
Flu Activity Not available.
METAR KARR 301752Z 31004KT 10SM CLR M03/M12 A3051 RMK AO2 SLP342 T10281122 11028 21072 58000

More Conditions Fewer Conditions

10-Day Weather Forecast

Almanac

Astronomy

Jan. 30, 2015 Rise Set
Actual Time
Civil Twilight
Nautical Twilight
Astronomical Twilight
Moon
Length of Visible Light
Length of Day
Tomorrow will be .
, % of the Moon is Illuminated

Today's Extremes

State Highs State Lows

Community

WunderPhotos

Upload Photos

1,791,857 photos uploaded!

WunderBlogs® & News

Nearby

Air Quality

  Air Quality AQ Index Pollutant
Not available.

Snow Depth

Station Depth Elevation

Earthquake Activity

City Distance Mag. Time & Date
Minimum magnitude displayed is 2.5.

Coastal Water Temperatures

Place Temperature

Nearby Weather Stations